Observations for LIVERPOOL AIRPORT, United Kingdom (EGGP)

EGGP 221250Z 23007KT 9999 8000E -SHRASN SCT009 SCT015 BKN028 02/01 Q0999
EGGP 221220Z 26006KT 7000 -SHRASN SCT008 BKN015 03/02 Q0999 
EGGP 221150Z 28007KT 9999 VCSH FEW009 SCT019 BKN033 03/01 Q0999 
EGGP 221120Z 25009KT 9999 VCSH FEW009 SCT019 BKN040 03/02 Q1000 RESHRA  
EGGP 221050Z 25010KT 9999 6000NE SHRASN FEW008 BKN019 04/01 Q1000   
EGGP 221020Z 25009KT 210V280 9999 8000NW SHRASN FEW008 BKN020 04/01 Q1000   
EGGP 220950Z 27018KT 9999 SHRASN FEW008 OVC016 03/00 Q1001  
EGGP 220920Z 25006KT 9999 5000E VCSH FEW022 SCT034TCU 03/01 Q1001   
EGGP 220850Z 25008KT 9999 VCSH SCT016 SCT024 03/01 Q1001
EGGP 220820Z 26013KT 9999 VCSH FEW008 SCT022 BKN030 03/01 Q1001 
EGGP 220750Z 26012KT 9999 FEW014 SCT020 03/00 Q1001 
EGGP 220720Z 26012KT 9999 FEW014 SCT020 03/01 Q1001 
EGGP 220650Z 25011KT 9999 SCT020 BKN032 03/01 Q1001 
EGGP 220620Z 26016KT 9999 -SHRA SCT014 BKN021 03/01 Q1001   
EGGP 220550Z 24010KT 9999 SCT020 BKN025 04/02 Q1001 
EGGP 220520Z 30005KT 9999 SCT020 03/01 Q1001
EGGP 220450Z 26011KT 9999 SCT016 SCT021 04/02 Q1001 
EGGP 220420Z 26015KT 9999 SCT016 SCT021 04/01 Q1001 
EGGP 220350Z 25010KT 9999 SCT016 SCT021 04/01 Q1002 
EGGP 220320Z 26012KT 9999 SCT016 SCT021 04/01 Q1002 
EGGP 220250Z 25015KT 9999 SCT016 SCT021 04/02 Q1002 
EGGP 220220Z 26013KT 9999 SCT016 SCT021 04/02 Q1002 
EGGP 220150Z 25011KT 9999 SCT016 SCT021 04/02 Q1003 
EGGP 220120Z 25009KT 9999 -RA SCT016 BKN021 04/02 Q1003 
EGGP 220050Z 22006KT 9999 -RA SCT016 BKN021 03/02 Q1003 
EGGP 220020Z 26009KT 9999 -RA SCT016 BKN021 04/02 Q1004 
EGGP 212350Z 25009KT 9999 -RA SCT016 BKN022 02/01 Q1004 
EGGP 212320Z 25009KT 9999 -RA SCT012 BKN016 03/02 Q1004 
EGGP 212250Z 25013KT 9000 -RA SCT009 BKN013 02/01 Q1004 
EGGP 212220Z 24017G27KT 9000 -RA SCT009 BKN013 04/02 Q1004  
EGGP 212150Z 17012KT 8000 -RA SCT015 BKN020 05/03 Q1004 
EGGP 212120Z 16011KT 9999 FEW016 BKN032 05/03 Q1004 
EGGP 212050Z 16013KT 9999 FEW017 BKN030 06/03 Q1005 
EGGP 212020Z 16011KT 9999 FEW028 SCT047 05/02 Q1006 
EGGP 211950Z 16010KT 9999 SCT033 06/03 Q1007
EGGP 211920Z 16011KT 120V190 9999 SCT028 06/04 Q1008
EGGP 211850Z 16011KT 9999 BKN031 06/03 Q1009
EGGP 211820Z 17012KT 9999 FEW031 SCT049 06/03 Q1010 
EGGP 211750Z 18013KT 9999 FEW031 SCT046 06/02 Q1011 
EGGP 211720Z 17011KT 9999 SCT037 BKN048 06/02 Q1012 
EGGP 211650Z 17010KT 9999 SCT027 BKN033 05/02 Q1013 
EGGP 211620Z 18012KT 9999 BKN030 06/03 Q1014
EGGP 211550Z 17009KT 9999 BKN032 BKN045 05/02 Q1014 
EGGP 211520Z 17012KT 9999 SCT032 BKN041 06/03 Q1015 
EGGP 211450Z 18011KT 9999 FEW032 BKN043 05/02 Q1016 
EGGP 211420Z 17008KT 9999 FEW032 SCT038 05/02 Q1016 
EGGP 211350Z 19009KT 9999 FEW033 06/03 Q1017
EGGP 211320Z 17007KT 9999 SCT046 05/02 Q1018
EGGP 211250Z 17008KT 130V200 9999 FEW047 05/02 Q1018
EGGP 211220Z 17005KT 130V200 9999 FEW048 05/03 Q1019